Time;durP1;ratioP1;P1;durP2;ratioP2;P2;SDS_P1;SDS_P2;PMS_P1;PMS_P2;Temp;Humidity;BMP_temperature;BMP_pressure;BME280_temperature;BME280_humidity;BME280_pressure;Samples;Min_cycle;Max_cycle;Signal;HPM_P1;HPM_P2
2022/08/06 00:00:46;;;;;;;;;2.00;1.00;;;;;20.17;36.58;101750.72;5013933;28;46394;-79
2022/08/06 00:03:11;;;;;;;;;0.25;0.25;;;;;20.09;36.84;101737.28;5013833;28;46310;-79
2022/08/06 00:08:59;;;;;;;;;1.00;1.00;;;;;20.08;36.72;101757.72;5013622;28;45651;-78
2022/08/06 00:11:24;;;;;;;;;2.00;1.50;;;;;20.08;37.11;101757.72;5013732;28;45835;-79
2022/08/06 00:13:50;;;;;;;;;2.00;1.00;;;;;20.13;37.01;101775.09;5013680;28;45663;-79
2022/08/06 00:16:15;;;;;;;;;2.00;1.25;;;;;20.00;37.12;101749.63;5013841;28;45685;-80
2022/08/06 00:18:40;;;;;;;;;2.00;1.50;;;;;19.96;37.11;101752.72;5013722;28;45615;-79
2022/08/06 00:24:28;;;;;;;;;2.50;1.75;;;;;19.96;37.39;101753.56;5013251;28;45911;-78
2022/08/06 00:26:53;;;;;;;;;2.00;2.00;;;;;19.98;37.47;101769.34;5013723;28;45539;-78
2022/08/06 00:29:18;;;;;;;;;2.00;2.00;;;;;19.90;37.62;101748.81;5013612;28;45729;-78
2022/08/06 00:31:44;;;;;;;;;2.00;2.00;;;;;19.85;37.52;101745.72;5013506;28;46507;-78
2022/08/06 00:34:09;;;;;;;;;2.25;2.00;;;;;19.88;38.02;101769.38;5013353;28;45712;-78
2022/08/06 00:36:35;;;;;;;;;3.00;2.00;;;;;19.93;37.99;101769.78;5013590;28;45606;-79
2022/08/06 00:39:05;;;;;;;;;3.00;3.00;;;;;19.82;37.69;101748.66;5013379;28;45631;-80
2022/08/06 00:41:32;;;;;;;;;2.50;2.00;;;;;19.81;38.22;101752.28;5013335;28;45598;-80
2022/08/06 00:43:58;;;;;;;;;2.75;2.00;;;;;19.88;37.77;101771.19;4995306;28;47551;-79
2022/08/06 00:46:24;;;;;;;;;2.50;2.50;;;;;19.74;38.09;101747.69;5013509;28;45674;-80
2022/08/06 00:48:49;;;;;;;;;2.00;2.00;;;;;19.76;38.38;101756.38;5014709;28;45713;-79
2022/08/06 00:54:37;;;;;;;;;3.00;2.25;;;;;19.76;38.01;101772.34;5016335;28;45898;-80
2022/08/06 00:57:05;;;;;;;;;3.00;3.00;;;;;19.73;38.52;101778.75;5016929;28;45638;-79
2022/08/06 00:59:31;;;;;;;;;2.00;2.00;;;;;19.70;38.69;101776.41;5016817;28;45747;-77
2022/08/06 01:01:56;;;;;;;;;3.00;2.00;;;;;19.55;38.46;101748.50;5016426;28;45628;-79
2022/08/06 01:04:21;;;;;;;;;2.25;2.00;;;;;19.56;38.86;101768.81;5016361;28;46421;-79
2022/08/06 01:06:47;;;;;;;;;2.00;1.50;;;;;19.57;38.96;101779.31;5016609;28;45646;-79
2022/08/06 01:09:12;;;;;;;;;1.50;1.00;;;;;19.50;39.12;101772.84;5016636;28;45997;-78
2022/08/06 01:11:38;;;;;;;;;2.00;2.00;;;;;19.43;39.00;101766.41;5016225;28;45618;-78
2022/08/06 01:14:04;;;;;;;;;3.00;1.75;;;;;19.39;39.50;101770.28;5016420;28;46663;-77
2022/08/06 01:16:38;;;;;;;;;2.00;2.00;;;;;19.37;39.32;101777.56;5016322;28;45481;-78
2022/08/06 01:19:06;;;;;;;;;2.50;2.00;;;;;19.37;39.71;101780.25;5016590;28;45806;-79
2022/08/06 01:25:18;;;;;;;;;1.25;1.25;;;;;19.24;39.73;101779.63;5016079;28;45908;-79
2022/08/06 01:28:04;;;;;;;;;2.00;2.00;;;;;19.15;39.88;101777.81;5016417;28;45846;-77
2022/08/06 01:30:46;;;;;;;;;2.00;1.00;;;;;19.10;40.41;101772.06;5016511;28;45811;-78
2022/08/06 01:33:20;;;;;;;;;1.00;1.00;;;;;19.14;40.25;101774.31;5016210;28;46890;-79
2022/08/06 01:35:52;;;;;;;;;2.00;2.00;;;;;19.06;39.93;101768.81;5016269;28;45457;-79
2022/08/06 01:38:25;;;;;;;;;1.00;1.00;;;;;19.10;40.29;101783.53;5016187;28;45650;-79
2022/08/06 01:40:54;;;;;;;;;1.25;1.25;;;;;19.10;40.31;101785.34;5016269;28;45698;-78
2022/08/06 01:43:21;;;;;;;;;2.00;1.25;;;;;19.07;40.61;101785.59;5016252;28;47039;-78
2022/08/06 01:45:49;;;;;;;;;3.00;1.00;;;;;19.00;40.46;101777.31;5016063;28;45877;-78
2022/08/06 01:48:23;;;;;;;;;1.00;1.00;;;;;19.03;40.58;101776.22;4997924;28;46267;-78
2022/08/06 01:50:51;;;;;;;;;2.00;1.00;;;;;18.98;40.38;101775.78;5016043;28;45560;-79
2022/08/06 01:53:22;;;;;;;;;1.00;1.00;;;;;19.05;40.99;101787.56;5015550;28;45795;-78
2022/08/06 01:55:52;;;;;;;;;1.00;1.00;;;;;19.03;40.64;101785.03;5016003;28;45906;-79
2022/08/06 01:58:25;;;;;;;;;1.00;1.00;;;;;18.92;40.47;101774.50;5016040;28;45729;-78
2022/08/06 02:00:52;;;;;;;;;1.75;1.00;;;;;18.88;40.94;101772.25;5015496;28;45654;-78
2022/08/06 02:03:29;;;;;;;;;1.00;1.00;;;;;18.96;40.61;101791.84;5015733;28;46791;-77
2022/08/06 02:05:57;;;;;;;;;1.00;1.00;;;;;18.86;40.74;101783.84;5015698;28;46461;-79
2022/08/06 02:08:25;;;;;;;;;1.00;1.00;;;;;18.84;40.93;101780.47;5015641;28;45493;-79
2022/08/06 02:10:53;;;;;;;;;1.25;1.25;;;;;18.85;40.74;101783.97;5015609;28;45706;-79
2022/08/06 02:13:22;;;;;;;;;2.00;1.00;;;;;18.90;40.95;101795.03;5015512;28;46667;-79
2022/08/06 02:15:49;;;;;;;;;1.00;1.00;;;;;18.88;41.11;101793.50;5015638;28;46461;-78
2022/08/06 02:18:16;;;;;;;;;2.00;2.00;;;;;18.85;41.04;101789.28;5015552;28;45863;-76
2022/08/06 02:20:47;;;;;;;;;3.00;2.00;;;;;18.76;41.48;101779.47;5015362;28;45524;-77
2022/08/06 02:23:19;;;;;;;;;1.50;1.00;;;;;18.83;41.24;101789.44;5015308;28;45716;-78
2022/08/06 02:25:47;;;;;;;;;1.00;1.00;;;;;18.71;41.02;101769.25;5015565;28;46305;-78
2022/08/06 02:28:15;;;;;;;;;2.00;1.00;;;;;18.73;41.33;101767.28;5015445;28;45515;-78
2022/08/06 02:30:43;;;;;;;;;2.00;2.00;;;;;18.72;41.44;101772.75;5015312;28;45713;-77
2022/08/06 02:33:10;;;;;;;;;1.00;1.00;;;;;18.70;41.29;101772.03;4997168;28;48462;-77
2022/08/06 02:35:42;;;;;;;;;1.00;1.00;;;;;18.63;41.74;101766.41;5015266;28;46311;-76
2022/08/06 02:38:17;;;;;;;;;0.50;0.50;;;;;18.60;41.87;101769.34;5015092;28;45766;-78
2022/08/06 02:40:45;;;;;;;;;2.50;2.00;;;;;18.60;41.35;101772.00;5015233;28;45539;-78
2022/08/06 02:43:15;;;;;;;;;1.00;1.00;;;;;18.61;41.61;101779.00;5015090;28;45900;-79
2022/08/06 02:45:57;;;;;;;;;1.75;1.50;;;;;18.67;41.47;101797.06;5015194;28;46349;-78
2022/08/06 02:48:47;;;;;;;;;3.00;1.00;;;;;18.64;41.78;101781.38;5014832;28;45552;-78
2022/08/06 02:51:18;;;;;;;;;1.00;1.00;;;;;18.62;41.65;101775.38;5015082;28;45870;-78
2022/08/06 02:54:05;;;;;;;;;1.25;1.00;;;;;18.61;41.23;101775.50;5015005;28;45519;-78
2022/08/06 02:56:33;;;;;;;;;1.00;1.00;;;;;18.55;41.32;101776.03;4997022;28;47061;-77
2022/08/06 02:59:01;;;;;;;;;1.00;1.00;;;;;18.58;41.67;101771.28;5015064;28;45744;-78
2022/08/06 03:01:33;;;;;;;;;1.00;1.00;;;;;18.56;41.39;101769.75;5015172;28;45445;-79
2022/08/06 03:04:00;;;;;;;;;1.00;1.00;;;;;18.54;41.77;101771.66;5014860;28;45673;-78
2022/08/06 03:06:29;;;;;;;;;1.00;1.00;;;;;18.48;41.98;101770.34;5015014;28;45996;-78
2022/08/06 03:08:56;;;;;;;;;1.50;1.50;;;;;18.49;41.76;101773.84;5014761;28;45648;-77
2022/08/06 03:11:23;;;;;;;;;1.00;1.00;;;;;18.45;41.82;101776.78;5014487;28;45615;-78
2022/08/06 03:13:51;;;;;;;;;1.00;1.00;;;;;18.41;42.33;101766.53;5013689;28;45670;-78
2022/08/06 03:16:18;;;;;;;;;2.25;1.25;;;;;18.41;42.26;101766.53;5014598;28;46234;-78
2022/08/06 03:18:45;;;;;;;;;1.75;1.75;;;;;18.43;41.86;101770.75;5014710;28;45575;-79
2022/08/06 03:21:12;;;;;;;;;2.00;2.00;;;;;18.41;42.08;101770.03;5014572;28;45643;-78
2022/08/06 03:23:38;;;;;;;;;3.00;2.00;;;;;18.26;42.38;101746.63;5014368;28;45674;-78
2022/08/06 03:26:07;;;;;;;;;2.00;1.25;;;;;18.29;42.23;101755.19;5014552;28;46407;-78
2022/08/06 03:28:34;;;;;;;;;3.00;2.25;;;;;18.31;42.26;101771.78;5014384;28;45670;-78
2022/08/06 03:31:01;;;;;;;;;2.00;1.50;;;;;18.23;42.61;101758.34;5014399;28;45614;-79
2022/08/06 03:33:28;;;;;;;;;1.00;1.00;;;;;18.24;42.77;101762.69;5014372;28;45574;-78
2022/08/06 03:35:56;;;;;;;;;3.00;2.00;;;;;18.10;42.20;101754.19;5014383;28;46054;-84
2022/08/06 03:38:24;;;;;;;;;2.00;2.00;;;;;18.19;42.29;101766.72;5014935;28;45685;-82
2022/08/06 03:40:51;;;;;;;;;1.50;1.50;;;;;18.13;42.70;101761.91;4996594;28;45641;-80
2022/08/06 03:43:16;;;;;;;;;3.00;3.00;;;;;18.09;42.53;101768.44;5014406;28;46525;-83
2022/08/06 03:45:53;;;;;;;;;1.75;1.00;;;;;18.02;42.93;101762.81;5014393;28;45680;-83
2022/08/06 03:48:24;;;;;;;;;1.00;1.00;;;;;17.97;43.23;101765.88;5014221;28;45566;-84
2022/08/06 03:50:52;;;;;;;;;2.50;2.00;;;;;17.90;42.85;101743.47;5014360;28;45755;-83
2022/08/06 03:53:25;;;;;;;;;2.00;1.00;;;;;17.95;42.93;101762.50;5013957;28;46601;-82
2022/08/06 03:55:54;;;;;;;;;1.00;1.00;;;;;17.95;43.45;101767.78;5014356;28;46360;-84
2022/08/06 03:58:21;;;;;;;;;1.25;1.25;;;;;17.86;42.98;101760.63;5014491;28;45675;-83
2022/08/06 04:00:51;;;;;;;;;2.00;1.00;;;;;17.88;43.26;101774.56;5014262;28;45626;-82
2022/08/06 04:03:19;;;;;;;;;2.00;2.00;;;;;17.77;43.58;101752.56;4995902;28;47641;-83
2022/08/06 04:05:47;;;;;;;;;1.00;1.00;;;;;17.74;43.22;101756.31;5014230;28;46457;-82
2022/08/06 04:11:34;;;;;;;;;2.00;1.50;;;;;17.75;43.76;101775.72;5014149;28;45692;-84
2022/08/06 04:14:01;;;;;;;;;1.75;1.00;;;;;17.72;43.47;101770.66;5014048;28;45823;-81
2022/08/06 04:16:27;;;;;;;;;1.00;1.00;;;;;17.63;43.63;101779.38;5014561;28;45600;-82
2022/08/06 04:18:55;;;;;;;;;1.00;1.00;;;;;17.60;43.22;101772.50;5014361;28;45702;-85
2022/08/06 04:21:24;;;;;;;;;1.00;1.00;;;;;17.61;43.28;101782.16;5013794;28;45757;-82
2022/08/06 04:23:51;;;;;;;;;1.25;1.00;;;;;17.50;43.81;101771.53;5015117;28;45738;-84
2022/08/06 04:26:24;;;;;;;;;1.00;1.00;;;;;17.55;43.39;101783.44;5017392;28;46022;-85
2022/08/06 04:28:52;;;;;;;;;1.50;1.00;;;;;17.46;43.41;101778.91;4999643;28;45685;-85
2022/08/06 04:31:20;;;;;;;;;1.75;1.25;;;;;17.54;43.29;101788.91;5017551;28;45514;-84
2022/08/06 04:33:47;;;;;;;;;0.25;0.25;;;;;17.52;43.33;101782.88;4999319;28;48588;-83
2022/08/06 04:36:13;;;;;;;;;1.25;1.00;;;;;17.50;43.69;101782.97;5017280;28;46175;-83
2022/08/06 04:42:41;;;;;;;;;1.75;1.00;;;;;17.43;43.47;101800.38;5016415;28;45841;-84
2022/08/06 04:45:08;;;;;;;;;1.00;1.00;;;;;17.42;43.40;101806.63;5016946;28;46734;-81
2022/08/06 04:47:35;;;;;;;;;0.00;0.00;;;;;17.38;43.69;101805.16;5017174;28;45899;-83
2022/08/06 04:50:01;;;;;;;;;2.00;1.00;;;;;17.41;43.79;101815.53;4998888;28;46071;-83
2022/08/06 04:52:28;;;;;;;;;2.00;1.00;;;;;17.40;43.13;101815.66;5017086;28;45582;-83
2022/08/06 04:54:53;;;;;;;;;0.25;0.25;;;;;17.32;43.35;101805.69;4998926;28;47465;-84
2022/08/06 04:57:19;;;;;;;;;0.50;0.00;;;;;17.37;43.53;101823.84;5017106;28;45683;-81
2022/08/06 04:59:44;;;;;;;;;0.50;0.50;;;;;17.29;43.40;101807.72;5017106;28;45733;-83
2022/08/06 05:02:10;;;;;;;;;0.50;0.50;;;;;17.32;43.32;101818.09;4998902;28;45541;-84
2022/08/06 05:04:37;;;;;;;;;1.00;1.00;;;;;17.35;43.21;101825.78;5017388;28;46588;-84
2022/08/06 05:07:16;;;;;;;;;1.75;1.00;;;;;17.36;43.67;101830.13;5016772;28;46220;-82
2022/08/06 05:09:42;;;;;;;;;0.75;0.75;;;;;17.34;43.55;101827.59;5016920;28;45763;-82
2022/08/06 05:12:36;;;;;;;;;1.25;1.00;;;;;17.35;43.52;101833.72;5017083;28;45522;-83
2022/08/06 05:15:32;;;;;;;;;1.00;1.00;;;;;17.34;43.48;101837.34;4998605;28;46581;-83
2022/08/06 05:18:12;;;;;;;;;1.00;1.00;;;;;17.34;43.77;101840.81;5017924;28;46708;-80
2022/08/06 05:20:40;;;;;;;;;1.50;1.50;;;;;17.34;43.92;101837.34;5018052;28;45810;-84
2022/08/06 05:23:18;;;;;;;;;0.00;0.00;;;;;17.27;44.04;101823.75;5018648;28;45626;-81
2022/08/06 05:25:44;;;;;;;;;1.00;1.00;;;;;17.31;44.17;101837.59;5027242;28;45560;-78
2022/08/06 05:28:09;;;;;;;;;1.50;1.00;;;;;17.24;43.86;101837.22;5029867;28;45614;-78
2022/08/06 05:30:45;;;;;;;;;1.00;1.00;;;;;17.28;43.98;101841.31;5024946;28;45157;-79
2022/08/06 05:33:12;;;;;;;;;1.00;1.00;;;;;17.23;44.06;101842.63;5002457;28;45569;-80
2022/08/06 05:35:37;;;;;;;;;1.25;0.75;;;;;17.25;44.00;101849.50;5016041;28;45617;-80
2022/08/06 05:38:02;;;;;;;;;3.00;2.00;;;;;17.15;44.28;101840.63;5017170;28;45626;-79
2022/08/06 05:40:33;;;;;;;;;1.00;1.00;;;;;17.19;44.19;101850.00;5017566;28;46153;-80
2022/08/06 05:42:59;;;;;;;;;3.00;2.00;;;;;17.08;44.64;101837.59;5016668;28;45673;-79
2022/08/06 05:45:26;;;;;;;;;1.25;1.00;;;;;17.13;44.69;101851.31;5017067;28;45652;-78
2022/08/06 05:47:52;;;;;;;;;2.00;1.50;;;;;17.10;44.05;101848.09;5018681;28;46211;-82
2022/08/06 05:50:22;;;;;;;;;1.00;1.00;;;;;17.14;44.28;101860.97;5016758;28;45649;-81
2022/08/06 05:52:59;;;;;;;;;1.00;1.00;;;;;17.12;44.49;101849.63;4998213;28;45968;-79
2022/08/06 05:55:34;;;;;;;;;2.00;2.00;;;;;17.13;44.26;101850.47;5017666;28;46702;-85
2022/08/06 05:58:02;;;;;;;;;1.50;1.00;;;;;17.16;44.33;101861.69;5017602;28;45604;-85
2022/08/06 06:00:32;;;;;;;;;1.75;1.75;;;;;17.12;44.32;101856.72;5001398;28;45620;-80
2022/08/06 06:02:59;;;;;;;;;1.50;0.50;;;;;17.19;44.15;101858.78;5017658;28;45809;-83
2022/08/06 06:05:25;;;;;;;;;2.00;2.00;;;;;17.20;44.42;101872.88;5020958;28;46675;-86
2022/08/06 06:07:52;;;;;;;;;1.00;1.00;;;;;17.15;44.31;101860.00;5017414;28;46021;-86
2022/08/06 06:10:20;;;;;;;;;1.25;1.25;;;;;17.16;44.39;101856.41;5017601;28;45598;-85
2022/08/06 06:12:46;;;;;;;;;3.00;2.00;;;;;17.14;44.31;101849.53;5017129;28;45412;-84
2022/08/06 06:15:14;;;;;;;;;1.00;1.00;;;;;17.23;44.65;101861.19;4999162;28;47531;-83
2022/08/06 06:18:03;;;;;;;;;1.25;1.00;;;;;17.25;44.37;101864.56;5016580;28;45957;-85
2022/08/06 06:20:42;;;;;;;;;2.00;1.00;;;;;17.24;44.47;101863.72;5017416;28;45889;-82
2022/08/06 06:23:26;;;;;;;;;1.00;1.00;;;;;17.24;44.56;101863.72;4999637;28;45837;-84
2022/08/06 06:26:03;;;;;;;;;0.75;0.75;;;;;17.23;44.37;101859.38;5018745;28;45556;-81
2022/08/06 06:28:57;;;;;;;;;2.00;1.00;;;;;17.18;44.48;101850.97;5018813;28;46431;-78
2022/08/06 06:31:40;;;;;;;;;1.00;1.00;;;;;17.26;44.43;101860.97;5015768;28;45556;-82
2022/08/06 06:34:28;;;;;;;;;2.00;1.00;;;;;17.16;44.47;101835.22;5016530;28;45702;-81
2022/08/06 06:36:58;;;;;;;;;0.00;0.00;;;;;17.25;44.24;101848.66;5017319;28;45739;-84
2022/08/06 06:39:47;;;;;;;;;2.00;1.50;;;;;17.28;44.12;101861.66;4998826;28;47690;-81
2022/08/06 06:42:19;;;;;;;;;0.50;0.00;;;;;17.19;44.28;101857.94;5016592;28;45705;-82
2022/08/06 06:44:58;;;;;;;;;1.00;1.00;;;;;17.27;43.99;101867.94;4998898;28;45542;-78
2022/08/06 06:47:48;;;;;;;;;1.00;1.00;;;;;17.27;44.14;101870.59;5015564;28;46659;-83
2022/08/06 06:50:22;;;;;;;;;1.00;0.75;;;;;17.25;44.22;101861.91;5015802;28;45551;-81
2022/08/06 06:56:13;;;;;;;;;1.00;1.00;;;;;17.27;44.27;101871.44;5015988;28;45594;-85
2022/08/06 06:58:48;;;;;;;;;1.00;0.25;;;;;17.27;43.68;101862.66;5015252;28;46625;-83
2022/08/06 07:01:16;;;;;;;;;1.00;0.50;;;;;17.34;43.49;101863.81;4997667;28;46456;-83
2022/08/06 07:03:44;;;;;;;;;1.00;1.00;;;;;17.33;43.92;101857.69;5015315;28;45630;-82
2022/08/06 07:06:11;;;;;;;;;0.00;0.00;;;;;17.45;43.29;101875.25;4997391;28;45746;-84
2022/08/06 07:12:00;;;;;;;;;1.75;1.00;;;;;17.54;43.07;101882.47;5017116;28;45842;-88
2022/08/06 07:14:30;;;;;;;;;0.00;0.00;;;;;17.60;43.07;101878.50;5019341;28;45578;-88
2022/08/06 07:16:58;;;;;;;;;1.00;1.00;;;;;17.63;42.48;101882.75;4999076;28;45900;-86
2022/08/06 07:19:25;;;;;;;;;1.00;1.00;;;;;17.58;42.99;101875.97;5015530;28;45711;-84
2022/08/06 07:21:51;;;;;;;;;1.00;1.00;;;;;17.70;42.55;101891.91;5015199;28;46400;-86
2022/08/06 07:27:42;;;;;;;;;1.00;1.00;;;;;17.85;41.76;101890.66;5018789;28;45530;-91
2022/08/06 07:30:10;;;;;;;;;0.75;0.75;;;;;17.90;42.46;101889.31;5018210;28;45811;-87
2022/08/06 07:32:37;;;;;;;;;0.50;0.50;;;;;17.92;41.87;101890.00;5017305;28;46551;-91
2022/08/06 07:35:05;;;;;;;;;0.00;0.00;;;;;18.06;42.17;101902.16;5001031;28;45736;-87
2022/08/06 07:37:32;;;;;;;;;1.00;1.00;;;;;18.07;41.71;101892.41;5022415;28;45611;-82
2022/08/06 07:43:24;;;;;;;;;1.00;0.50;;;;;18.28;40.93;101901.25;5023127;28;45627;-76
2022/08/06 07:45:52;;;;;;;;;1.00;1.00;;;;;18.34;40.70;101901.56;5023240;28;45521;-78
2022/08/06 07:48:23;;;;;;;;;0.00;0.00;;;;;18.33;39.73;101886.63;5018165;28;45530;-79
2022/08/06 07:50:51;;;;;;;;;0.50;0.00;;;;;18.43;39.75;101903.44;5016090;28;46788;-77
2022/08/06 07:59:45;;;;;;;;;1.00;0.00;;;;;18.59;38.22;101897.72;5020481;28;45633;-84
2022/08/06 08:02:12;;;;;;;;;0.25;0.00;;;;;18.66;38.38;101911.34;5021881;28;46557;-83
2022/08/06 08:07:24;;;;;;;;;0.00;0.00;;;;;18.67;37.61;101887.31;5020144;28;45686;-87
2022/08/06 08:09:51;;;;;;;;;1.00;0.00;;;;;18.75;37.64;101886.66;5021195;28;45735;-84
2022/08/06 08:12:18;;;;;;;;;0.00;0.00;;;;;18.77;37.77;101895.34;5022397;28;46821;-86
2022/08/06 08:14:46;;;;;;;;;0.25;0.00;;;;;18.90;37.59;101901.28;5023009;28;45833;-86
2022/08/06 08:17:11;;;;;;;;;1.00;0.00;;;;;18.88;37.17;101892.63;5022675;28;45544;-84
2022/08/06 08:19:37;;;;;;;;;1.00;0.00;;;;;18.97;37.91;101902.44;4999916;28;46003;-77
2022/08/06 08:22:08;;;;;;;;;0.00;0.00;;;;;19.09;37.89;101909.38;5014206;28;45578;-76
2022/08/06 08:24:34;;;;;;;;;0.75;0.75;;;;;19.14;37.45;101912.47;5014132;28;46542;-76
2022/08/06 08:27:00;;;;;;;;;1.00;0.00;;;;;19.21;37.56;101918.94;5016752;28;45520;-77
2022/08/06 08:29:26;;;;;;;;;1.00;0.25;;;;;19.27;37.46;101921.03;4996385;28;45639;-76
2022/08/06 08:31:53;;;;;;;;;0.00;0.00;;;;;19.32;36.97;101904.72;5014141;28;45594;-76
2022/08/06 08:34:18;;;;;;;;;0.00;0.00;;;;;19.37;36.83;101899.84;5014181;28;45523;-78
2022/08/06 08:36:44;;;;;;;;;0.50;0.25;;;;;19.39;37.22;101889.91;5014304;28;45576;-77
2022/08/06 08:39:09;;;;;;;;;0.00;0.00;;;;;19.47;36.94;101903.41;5013699;28;45544;-77
2022/08/06 08:41:39;;;;;;;;;0.00;0.00;;;;;19.53;36.64;101899.38;5013714;28;45655;-76
2022/08/06 08:44:07;;;;;;;;;0.00;0.00;;;;;19.53;35.46;101894.91;5013426;28;46023;-77
2022/08/06 08:46:37;;;;;;;;;0.00;0.00;;;;;19.58;35.79;101903.31;5014169;28;45619;-78
2022/08/06 08:49:04;;;;;;;;;0.00;0.00;;;;;19.57;35.87;101885.66;5014995;28;45645;-77
2022/08/06 08:51:36;;;;;;;;;0.00;0.00;;;;;19.69;36.26;101889.06;5016516;28;45570;-77
2022/08/06 08:54:05;;;;;;;;;0.00;0.00;;;;;19.74;36.61;101892.16;5017909;28;45751;-77
2022/08/06 08:59:52;;;;;;;;;0.00;0.00;;;;;19.84;35.45;101892.16;5017341;28;45582;-77
2022/08/06 09:02:18;;;;;;;;;0.00;0.00;;;;;19.85;35.31;101880.53;4999449;28;46824;-78
2022/08/06 09:04:44;;;;;;;;;0.00;0.00;;;;;19.91;35.75;101888.81;5017284;28;45806;-77
2022/08/06 09:07:10;;;;;;;;;0.00;0.00;;;;;19.98;34.79;101886.41;4998606;28;45687;-77
2022/08/06 09:09:38;;;;;;;;;0.00;0.00;;;;;19.98;35.00;101881.09;5016878;28;45534;-78
2022/08/06 09:12:04;;;;;;;;;0.00;0.00;;;;;20.05;34.99;101888.41;5019009;28;45558;-76
2022/08/06 09:14:30;;;;;;;;;1.00;0.00;;;;;20.05;34.21;101883.06;5020686;28;46387;-78
2022/08/06 09:16:57;;;;;;;;;0.00;0.00;;;;;20.16;34.57;101903.41;5021403;28;45612;-77
2022/08/06 09:19:23;;;;;;;;;0.00;0.00;;;;;20.20;34.11;101901.28;5020573;28;45582;-77
2022/08/06 09:21:48;;;;;;;;;0.50;0.00;;;;;20.24;34.27;101890.25;5019280;28;46042;-75
2022/08/06 09:24:14;;;;;;;;;0.50;0.00;;;;;20.32;33.12;101898.38;5019797;28;45570;-78
2022/08/06 09:30:05;;;;;;;;;0.00;0.00;;;;;20.40;32.25;101906.53;5020146;28;45663;-75
2022/08/06 09:32:45;;;;;;;;;0.00;0.00;;;;;20.46;32.42;101905.09;5018498;28;45904;-78
2022/08/06 09:35:19;;;;;;;;;0.00;0.00;;;;;20.49;32.41;101900.34;5017092;28;46123;-77
2022/08/06 09:37:45;;;;;;;;;0.00;0.00;;;;;20.57;32.40;101915.59;5015066;28;45637;-76
2022/08/06 09:40:15;;;;;;;;;1.00;0.00;;;;;20.57;31.32;101902.28;5016480;28;45549;-76
2022/08/06 09:42:43;;;;;;;;;1.25;0.00;;;;;20.63;31.92;101900.88;5015640;28;47889;-76
2022/08/06 09:45:13;;;;;;;;;0.50;0.00;;;;;20.62;31.48;101897.38;5015468;28;47076;-76
2022/08/06 09:47:38;;;;;;;;;0.00;0.00;;;;;20.68;32.14;101902.13;5015615;28;45677;-76
2022/08/06 09:50:05;;;;;;;;;0.50;0.50;;;;;20.75;30.72;101905.91;5015769;28;45564;-76
2022/08/06 09:52:31;;;;;;;;;0.00;0.00;;;;;20.76;30.96;101896.94;5016073;28;46722;-76
2022/08/06 09:54:56;;;;;;;;;0.00;0.00;;;;;20.82;31.18;101901.69;5018473;28;46229;-78
2022/08/06 10:00:43;;;;;;;;;0.00;0.00;;;;;20.91;30.30;101894.66;5021493;28;45678;-77
2022/08/06 10:03:09;;;;;;;;;1.00;0.00;;;;;20.93;30.80;101895.34;5020384;28;45588;-75
2022/08/06 10:05:35;;;;;;;;;0.00;0.00;;;;;20.98;30.21;101898.44;4998828;28;47471;-77
2022/08/06 10:08:02;;;;;;;;;0.00;0.00;;;;;21.00;30.06;101895.63;5018705;28;45510;-77
2022/08/06 10:10:50;;;;;;;;;0.00;0.00;;;;;21.07;30.37;101899.38;5018995;28;45428;-78
2022/08/06 10:13:18;;;;;;;;;0.00;0.00;;;;;21.10;30.13;101889.28;5017548;28;46784;-76
2022/08/06 10:15:48;;;;;;;;;0.50;0.50;;;;;21.15;30.64;101894.19;5018051;28;46219;-77
2022/08/06 10:18:36;;;;;;;;;0.00;0.00;;;;;21.22;30.41;101896.13;5017420;28;45669;-79
2022/08/06 10:21:06;;;;;;;;;0.00;0.00;;;;;21.23;30.12;101886.28;5017304;28;45517;-77
2022/08/06 10:23:34;;;;;;;;;0.00;0.00;;;;;21.28;29.45;101887.53;5016779;28;45948;-76
2022/08/06 10:26:07;;;;;;;;;1.00;0.75;;;;;21.30;29.26;101880.25;5018589;28;45856;-77
2022/08/06 10:28:35;;;;;;;;;0.00;0.00;;;;;21.35;29.18;101882.47;5018425;28;45476;-77
2022/08/06 10:31:04;;;;;;;;;0.00;0.00;;;;;21.36;29.32;101878.81;5018603;28;45599;-77
2022/08/06 10:33:49;;;;;;;;;0.00;0.00;;;;;21.39;29.73;101878.50;5018163;28;46349;-79
2022/08/06 10:36:19;;;;;;;;;1.25;1.00;;;;;21.42;29.80;101875.56;5018674;28;46420;-77
2022/08/06 10:38:48;;;;;;;;;0.75;0.00;;;;;21.49;30.48;101871.28;5020006;28;45621;-77
2022/08/06 10:41:14;;;;;;;;;0.75;0.75;;;;;21.54;30.12;101871.69;5018948;28;45616;-77
2022/08/06 10:43:41;;;;;;;;;0.00;0.00;;;;;21.57;30.65;101871.38;5017656;28;46767;-79
2022/08/06 10:46:09;;;;;;;;;0.50;0.50;;;;;21.62;30.44;101868.28;4999426;28;48203;-77
2022/08/06 10:48:37;;;;;;;;;0.75;0.75;;;;;21.70;29.99;101866.53;5016884;28;45647;-78
2022/08/06 10:51:08;;;;;;;;;1.00;1.00;;;;;21.66;30.52;101835.81;5016278;28;45705;-78
2022/08/06 10:53:35;;;;;;;;;0.00;0.00;;;;;21.77;28.93;101854.25;5016182;28;45792;-77
2022/08/06 10:56:03;;;;;;;;;0.50;0.50;;;;;21.82;29.58;101853.81;5016955;28;45912;-77
2022/08/06 10:58:33;;;;;;;;;1.50;1.00;;;;;21.91;29.02;101858.25;5017851;28;45600;-78
2022/08/06 11:01:02;;;;;;;;;1.00;1.00;;;;;21.92;28.18;101865.25;5017781;28;45509;-79
2022/08/06 11:04:02;;;;;;;;;0.00;0.00;;;;;21.95;28.40;101850.81;5017016;28;46886;-77
2022/08/06 11:06:45;;;;;;;;;1.00;1.00;;;;;21.95;28.75;101846.31;4918722;28;46592;-77
2022/08/06 11:09:44;;;;;;;;;1.50;1.00;;;;;22.00;28.94;101856.53;4918377;28;45728;-78
2022/08/06 11:12:10;;;;;;;;;0.75;0.00;;;;;22.03;29.33;101845.53;4915672;28;46191;-78
2022/08/06 11:14:37;;;;;;;;;0.00;0.00;;;;;22.01;29.28;101832.34;4915005;28;46745;-79
2022/08/06 11:17:05;;;;;;;;;1.00;0.75;;;;;22.12;29.29;101850.81;4914623;28;45952;-79
2022/08/06 11:19:48;;;;;;;;;1.00;1.00;;;;;22.14;28.48;101853.31;4914418;28;46055;-78
2022/08/06 11:22:38;;;;;;;;;2.75;1.00;;;;;22.15;28.83;101838.97;4898380;28;45656;-80
2022/08/06 11:25:05;;;;;;;;;1.00;1.00;;;;;;;;4914629;28;46546;-79
2022/08/06 11:27:52;;;;;;;;;1.00;1.00;;;;;22.23;28.66;101835.53;4914212;28;46340;-77
2022/08/06 11:30:19;;;;;;;;;0.00;0.00;;;;;22.21;28.26;101821.50;4914134;28;45753;-78
2022/08/06 11:32:51;;;;;;;;;2.00;1.00;;;;;22.28;28.08;101831.41;4913924;28;45713;-77
2022/08/06 11:35:49;;;;;;;;;1.50;1.00;;;;;22.29;28.36;101827.75;4913873;28;45768;-80
2022/08/06 11:38:46;;;;;;;;;0.50;0.50;;;;;22.33;28.30;101831.78;4857445;29;45875;-79
2022/08/06 11:44:05;;;;;;;;;1.00;0.50;;;;;22.41;27.80;101828.31;4911361;28;45863;-80
2022/08/06 11:46:36;;;;;;;;;1.00;1.00;;;;;22.43;27.84;101824.50;4933288;28;45938;-79
2022/08/06 11:49:06;;;;;;;;;0.00;0.00;;;;;22.46;28.26;101805.47;4932824;28;45838;-78
2022/08/06 11:51:38;;;;;;;;;1.00;1.00;;;;;22.49;27.20;101820.38;4933329;28;45585;-78
2022/08/06 11:54:11;;;;;;;;;1.00;0.75;;;;;22.52;27.03;101810.19;4940513;28;45621;-82
2022/08/06 11:59:58;;;;;;;;;0.25;0.25;;;;;22.57;27.00;101805.22;4934221;28;46145;-80
2022/08/06 12:02:42;;;;;;;;;0.00;0.00;;;;;22.63;27.21;101809.09;4936110;28;45608;-80
2022/08/06 12:05:27;;;;;;;;;1.00;0.00;;;;;22.67;27.24;101807.81;4941638;28;45737;-79
2022/08/06 12:08:13;;;;;;;;;1.00;1.00;;;;;22.71;27.41;101808.31;4937268;28;46347;-79
2022/08/06 12:10:39;;;;;;;;;0.50;0.50;;;;;22.72;27.45;101804.69;4938785;28;46269;-79
2022/08/06 12:16:44;;;;;;;;;0.00;0.00;;;;;22.80;27.23;101804.72;4998677;28;45504;-79
2022/08/06 12:19:14;;;;;;;;;1.00;1.00;;;;;22.82;27.02;101811.59;4997866;28;46827;-80
2022/08/06 12:21:42;;;;;;;;;0.00;0.00;;;;;22.89;26.69;101796.56;4999064;28;46042;-78
2022/08/06 12:24:08;;;;;;;;;0.00;0.00;;;;;22.88;27.42;101778.03;4997365;28;45661;-82
2022/08/06 12:26:34;;;;;;;;;1.25;1.25;;;;;22.90;26.43;101786.72;4996647;28;45598;-80
2022/08/06 12:32:24;;;;;;;;;0.00;0.00;;;;;22.98;26.90;101787.63;4996465;28;45877;-81
2022/08/06 12:34:51;;;;;;;;;0.00;0.00;;;;;23.03;27.27;101784.44;4995430;28;46059;-80
2022/08/06 12:37:17;;;;;;;;;0.75;0.00;;;;;23.07;26.80;101776.94;4995311;28;45715;-82
2022/08/06 12:42:28;;;;;;;;;0.75;0.75;;;;;23.18;26.69;101790.00;4994788;28;45983;-79
2022/08/06 12:44:53;;;;;;;;;1.00;1.00;;;;;23.08;26.67;101778.63;5013008;28;45758;-79
2022/08/06 12:47:20;;;;;;;;;1.00;1.00;;;;;23.21;26.56;101782.50;5018952;28;45584;-81
2022/08/06 12:49:45;;;;;;;;;1.00;1.00;;;;;23.12;26.31;101775.44;5017997;28;45783;-80